Time;durP1;ratioP1;P1;durP2;ratioP2;P2;SDS_P1;SDS_P2;PMS_P1;PMS_P2;Temp;Humidity;BMP_temperature;BMP_pressure;BME280_temperature;BME280_humidity;BME280_pressure;Samples;Min_cycle;Max_cycle;Signal;HPM_P1;HPM_P2
2023/12/09 00:03:53;;;;;;;31.42;16.55;;;;;;;3.16;62.56;100177.44;7778665;32;37895;-80
2023/12/09 00:08:10;;;;;;;30.12;16.30;;;;;;;3.51;61.68;100168.97;7792352;32;37779;-80
2023/12/09 00:12:26;;;;;;;31.65;15.27;;;;;;;3.63;61.57;100172.63;7792831;32;39001;-80
2023/12/09 00:16:43;;;;;;;28.80;15.25;;;;;;;3.54;61.54;100174.75;7792550;32;40854;-80
2023/12/09 00:20:59;;;;;;;28.35;15.52;;;;;;;3.73;61.22;100181.06;7767037;32;37946;-80
2023/12/09 00:25:15;;;;;;;27.35;15.63;;;;;;;3.58;61.52;100167.88;7765588;32;36934;-80
2023/12/09 00:29:32;;;;;;;27.08;15.32;;;;;;;3.57;61.43;100168.94;7765403;32;38983;-81
2023/12/09 00:33:48;;;;;;;27.98;14.87;;;;;;;3.19;63.17;100168.91;7765112;32;40793;-80
2023/12/09 00:38:05;;;;;;;24.17;13.90;;;;;;;3.42;62.34;100167.59;7765255;32;38225;-79
2023/12/09 00:42:21;;;;;;;25.85;14.32;;;;;;;3.66;61.48;100166.00;7783026;32;37899;-80
2023/12/09 00:46:38;;;;;;;23.17;14.25;;;;;;;3.54;61.75;100168.53;7773932;32;39803;-80
2023/12/09 00:50:54;;;;;;;25.92;14.63;;;;;;;3.62;61.66;100176.34;7765229;32;39900;-81
2023/12/09 00:55:11;;;;;;;26.23;14.23;;;;;;;3.71;61.14;100174.25;7764997;32;38701;-80
2023/12/09 00:59:28;;;;;;;24.52;14.82;;;;;;;3.68;61.10;100178.19;7765024;32;37177;-81
2023/12/09 01:03:45;;;;;;;23.23;14.87;;;;;;;3.57;61.34;100179.72;7764942;32;40174;-80
2023/12/09 01:08:01;;;;;;;24.20;14.20;;;;;;;3.54;61.51;100179.34;7770033;32;39964;-80
2023/12/09 01:12:17;;;;;;;26.10;14.93;;;;;;;3.58;61.44;100181.34;7791821;32;38781;-80
2023/12/09 01:16:34;;;;;;;25.33;14.63;;;;;;;3.50;61.37;100178.09;7791895;32;36876;-80
2023/12/09 01:20:50;;;;;;;28.27;15.90;;;;;;;3.66;61.11;100171.38;7791013;32;39222;-80
2023/12/09 01:25:07;;;;;;;27.05;16.23;;;;;;;3.50;61.56;100172.69;7785382;32;40029;-80
2023/12/09 01:29:23;;;;;;;28.62;16.20;;;;;;;3.56;61.49;100169.97;7764418;32;39135;-80
2023/12/09 01:33:40;;;;;;;30.30;15.60;;;;;;;3.84;60.22;100159.84;7764146;32;37647;-81
2023/12/09 01:37:56;;;;;;;28.35;16.30;;;;;;;3.87;60.17;100162.13;7764028;32;39329;-79
2023/12/09 01:42:13;;;;;;;27.80;15.10;;;;;;;3.53;61.21;100167.69;7780573;32;40615;-80
2023/12/09 01:46:32;;;;;;;29.50;16.50;;;;;;;3.90;60.15;100153.59;7791120;32;37955;-80
2023/12/09 06:30:55;;;;;;;35.42;18.60;;;;;;;3.40;62.41;100210.91;8065715;26;20143;-78
2023/12/09 06:35:11;;;;;;;34.35;18.95;;;;;;;3.54;61.91;100207.09;7792070;32;38843;-79
2023/12/09 06:39:28;;;;;;;36.65;19.85;;;;;;;3.52;62.25;100214.59;7793736;32;37650;-79
2023/12/09 06:43:44;;;;;;;36.00;19.55;;;;;;;3.47;62.34;100211.72;7793235;32;39383;-78
2023/12/09 06:48:01;;;;;;;32.88;18.90;;;;;;;3.43;62.43;100212.34;7793903;32;40528;-79
2023/12/09 06:52:17;;;;;;;34.75;18.23;;;;;;;3.51;62.33;100217.50;7784468;32;38233;-80
2023/12/09 06:56:34;;;;;;;40.22;19.62;;;;;;;3.64;61.97;100205.81;7763736;32;37519;-79
2023/12/09 07:00:50;;;;;;;29.90;16.85;;;;;;;3.52;62.43;100213.78;7776918;32;39021;-79
2023/12/09 07:05:07;;;;;;;31.10;16.05;;;;;;;3.45;62.32;100216.50;7766342;32;40977;-78
2023/12/09 07:09:23;;;;;;;29.25;16.90;;;;;;;3.16;62.18;100215.97;7766309;32;38688;-79
2023/12/09 07:13:39;;;;;;;30.33;16.60;;;;;;;3.52;60.80;100216.47;7766251;32;37178;-79
2023/12/09 07:17:56;;;;;;;30.83;17.30;;;;;;;3.30;61.72;100224.84;7765641;32;39291;-80
2023/12/09 07:22:12;;;;;;;29.60;17.48;;;;;;;3.19;62.09;100220.09;7763000;32;39728;-79
2023/12/09 07:26:28;;;;;;;31.02;17.10;;;;;;;3.65;60.96;100216.37;7764297;32;38035;-76
2023/12/09 07:30:45;;;;;;;34.38;17.98;;;;;;;3.92;61.62;100213.53;7764886;32;37070;-71
2023/12/09 07:35:01;;;;;;;34.05;19.10;;;;;;;3.92;63.06;100218.94;7765436;32;39222;-79
2023/12/09 07:39:17;;;;;;;30.25;17.85;;;;;;;4.34;64.70;100216.53;7766021;32;39962;-79
2023/12/09 07:43:34;;;;;;;29.12;17.10;;;;;;;4.01;60.89;100223.00;7765743;32;37672;-79
2023/12/09 07:47:54;;;;;;;33.58;17.08;;;;;;;3.71;60.36;100222.81;7765928;32;37567;-79
2023/12/09 07:52:11;;;;;;;32.08;16.08;;;;;;;4.11;59.34;100223.34;7752158;32;40025;-78
2023/12/09 07:56:27;;;;;;;33.50;17.58;;;;;;;4.02;59.29;100230.06;7765741;32;39941;-81
2023/12/09 08:00:43;;;;;;;30.05;17.08;;;;;;;3.90;59.44;100237.22;7765665;32;38027;-79
2023/12/09 08:04:59;;;;;;;27.98;14.20;;;;;;;4.01;59.52;100241.09;7765620;32;37082;-79
2023/12/09 08:09:16;;;;;;;23.73;13.10;;;;;;;4.20;57.16;100242.81;7751657;32;39825;-78
2023/12/09 08:13:33;;;;;;;22.35;12.15;;;;;;;4.07;57.06;100238.34;7765540;32;39930;-79
2023/12/09 08:17:50;;;;;;;16.73;10.18;;;;;;;4.20;56.02;100220.41;7751765;32;38660;-78
2023/12/09 08:22:07;;;;;;;21.73;12.85;;;;;;;4.35;57.05;100234.41;7751734;32;36774;-76
2023/12/09 08:26:23;;;;;;;23.87;13.95;;;;;;;4.36;57.49;100230.63;7765545;32;39268;-76
2023/12/09 08:30:39;;;;;;;30.92;16.37;;;;;;;4.09;58.22;100225.44;7765137;32;40946;-77
2023/12/09 08:34:55;;;;;;;28.17;15.85;;;;;;;4.26;57.39;100224.91;7765249;32;39400;-77
2023/12/09 08:39:24;;;;;;;26.58;14.98;;;;;;;4.19;57.56;100232.22;7765425;32;37706;-77
2023/12/09 08:43:40;;;;;;;23.95;12.85;;;;;;;4.50;56.95;100236.75;7765174;32;39399;-76
2023/12/09 08:47:57;;;;;;;20.98;13.00;;;;;;;4.47;56.74;100227.22;7764796;32;40743;-77
2023/12/09 08:52:14;;;;;;;21.23;12.57;;;;;;;4.33;56.96;100231.91;7763743;32;38587;-76
2023/12/09 08:56:30;;;;;;;21.30;12.25;;;;;;;4.64;56.36;100238.31;7764467;32;37905;-76
2023/12/09 09:00:46;;;;;;;23.02;13.18;;;;;;;4.45;56.11;100242.84;7765183;32;40032;-76
2023/12/09 09:05:08;;;;;;;23.20;12.82;;;;;;;4.62;55.82;100236.84;7764000;32;40597;-76
2023/12/09 09:09:24;;;;;;;26.98;15.15;;;;;;;4.29;56.75;100243.38;7763841;32;38911;-75
2023/12/09 09:13:41;;;;;;;24.83;14.87;;;;;;;4.23;57.40;100236.97;7763825;32;37139;-75
2023/12/09 09:17:57;;;;;;;24.42;13.13;;;;;;;4.26;57.68;100230.28;7764107;32;39950;-75
2023/12/09 09:22:13;;;;;;;23.52;14.63;;;;;;;4.37;57.16;100231.47;7764624;32;40110;-75
2023/12/09 09:26:30;;;;;;;29.05;15.75;;;;;;;4.34;57.17;100227.34;7764496;32;38721;-75
2023/12/09 09:30:46;;;;;;;26.15;13.82;;;;;;;4.21;58.28;100225.59;7764337;32;37718;-75
2023/12/09 09:35:05;;;;;;;25.40;15.65;;;;;;;4.37;58.20;100232.31;7764428;32;39115;-76
2023/12/09 09:39:21;;;;;;;30.20;15.45;;;;;;;4.27;58.80;100224.69;7763517;32;40853;-76
2023/12/09 09:43:44;;;;;;;26.20;14.50;;;;;;;4.40;58.67;100210.28;7763984;32;38542;-76
2023/12/09 09:48:05;;;;;;;26.45;14.32;;;;;;;4.46;58.32;100208.56;7751010;32;37172;-76
2023/12/09 09:52:22;;;;;;;28.60;15.05;;;;;;;4.48;58.23;100201.91;7763996;32;39326;-76
2023/12/09 09:56:39;;;;;;;29.55;16.12;;;;;;;4.35;58.46;100191.22;7763783;32;40777;-76
2023/12/09 10:00:56;;;;;;;29.30;16.52;;;;;;;4.30;58.94;100193.75;7763665;32;38096;-76
2023/12/09 10:05:20;;;;;;;31.40;16.85;;;;;;;4.36;58.83;100192.03;7763625;32;37193;-76
2023/12/09 10:09:36;;;;;;;31.12;17.02;;;;;;;4.34;59.09;100181.44;7763749;32;39287;-76
2023/12/09 10:13:53;;;;;;;26.80;15.20;;;;;;;4.68;57.99;100174.69;7763539;32;41003;-76
2023/12/09 10:18:15;;;;;;;29.67;15.73;;;;;;;4.73;57.45;100179.41;7763421;32;37577;-76
2023/12/09 10:22:34;;;;;;;25.40;14.18;;;;;;;4.58;57.99;100160.06;7763273;32;37972;-76
2023/12/09 10:26:50;;;;;;;29.98;15.70;;;;;;;4.73;57.52;100149.72;7763268;32;39094;-76
2023/12/09 10:31:09;;;;;;;29.60;15.93;;;;;;;4.78;57.44;100152.56;7762927;32;39914;-76
2023/12/09 10:35:26;;;;;;;29.70;15.18;;;;;;;5.10;56.65;100141.59;7762925;32;38579;-76
2023/12/09 10:39:47;;;;;;;27.83;16.27;;;;;;;4.45;58.53;100142.94;7762886;32;37296;-76
2023/12/09 10:44:03;;;;;;;29.37;16.65;;;;;;;4.58;58.67;100147.38;7762708;32;39175;-77
2023/12/09 10:48:19;;;;;;;31.67;17.30;;;;;;;4.67;58.33;100139.78;7762642;32;39977;-75
2023/12/09 10:52:36;;;;;;;30.80;17.77;;;;;;;4.66;58.23;100138.16;7763704;32;38523;-76
2023/12/09 10:56:54;;;;;;;36.03;19.52;;;;;;;4.86;57.85;100144.16;7766488;32;37664;-72
2023/12/09 11:01:11;;;;;;;34.00;18.83;;;;;;;5.19;56.88;100129.44;7765961;32;39296;-75
2023/12/09 11:05:27;;;;;;;37.33;19.80;;;;;;;5.17;56.80;100125.28;7773712;32;37721;-76
2023/12/09 11:09:45;;;;;;;35.85;20.02;;;;;;;4.75;58.18;100125.19;7766285;32;38691;-76
2023/12/09 11:14:01;;;;;;;35.15;20.08;;;;;;;4.88;57.76;100128.56;7771428;32;37200;-76
2023/12/09 11:18:18;;;;;;;35.92;19.50;;;;;;;4.59;58.74;100126.56;7772786;32;40420;-75
2023/12/09 11:22:38;;;;;;;37.50;19.83;;;;;;;4.74;58.60;100135.13;7766793;32;40835;-75
2023/12/09 11:26:54;;;;;;;35.17;18.42;;;;;;;4.74;58.35;100118.94;7766061;32;37686;-76
2023/12/09 11:31:10;;;;;;;38.72;19.67;;;;;;;5.06;57.08;100116.06;7765137;32;37224;-75
2023/12/09 11:35:28;;;;;;;34.67;19.77;;;;;;;4.75;58.06;100117.91;7765330;32;39313;-75
2023/12/09 11:39:47;;;;;;;37.15;19.20;;;;;;;4.52;58.67;100115.88;7764982;32;38482;-80
2023/12/09 11:44:06;;;;;;;32.28;18.90;;;;;;;4.64;58.38;100118.63;7765114;32;38672;-81
2023/12/09 11:48:25;;;;;;;35.00;18.80;;;;;;;4.80;57.98;100119.94;7768136;32;37827;-81
2023/12/09 11:52:43;;;;;;;34.72;17.60;;;;;;;4.80;57.87;100122.63;7769263;32;39341;-81
2023/12/09 11:56:59;;;;;;;33.88;18.98;;;;;;;4.82;57.83;100112.41;7765417;32;39970;-79
2023/12/09 12:01:17;;;;;;;32.28;19.17;;;;;;;4.94;57.63;100097.09;7764852;32;37995;-81
2023/12/09 12:05:34;;;;;;;34.63;18.77;;;;;;;4.96;57.23;100099.56;7765594;32;37248;-83
2023/12/09 12:09:50;;;;;;;38.22;19.67;;;;;;;4.82;57.83;100096.22;7765700;32;38941;-79
2023/12/09 12:14:07;;;;;;;40.42;20.30;;;;;;;4.35;59.29;100099.44;7764911;32;40717;-80
2023/12/09 12:18:23;;;;;;;35.88;19.98;;;;;;;4.26;59.63;100104.28;7783671;32;37936;-80
2023/12/09 12:22:41;;;;;;;41.28;19.75;;;;;;;4.49;59.24;100100.94;7758749;32;36930;-81
2023/12/09 12:26:57;;;;;;;43.38;22.50;;;;;;;4.67;58.50;100085.78;7751678;32;39192;-81
2023/12/09 12:31:13;;;;;;;37.90;20.15;;;;;;;4.76;58.38;100087.16;7765229;32;40055;-81
2023/12/09 12:35:32;;;;;;;43.78;20.80;;;;;;;4.64;58.97;100083.53;7765222;32;37568;-79
2023/12/09 12:39:48;;;;;;;42.25;21.55;;;;;;;4.73;58.78;100078.66;7766160;32;37217;-80
2023/12/09 12:44:05;;;;;;;41.10;22.17;;;;;;;4.67;58.95;100072.28;7765103;32;40002;-79
2023/12/09 12:48:22;;;;;;;40.38;19.92;;;;;;;4.59;59.15;100070.72;7765208;32;41276;-78
2023/12/09 12:52:39;;;;;;;38.20;20.35;;;;;;;4.32;59.58;100072.88;7765740;32;38225;-78
2023/12/09 12:56:56;;;;;;;38.58;20.85;;;;;;;4.66;58.78;100065.25;7764855;32;36843;-78
2023/12/09 13:01:12;;;;;;;39.85;20.17;;;;;;;4.43;59.37;100064.03;7765392;32;39121;-79
2023/12/09 13:05:29;;;;;;;40.60;20.45;;;;;;;4.65;58.61;100058.19;7765935;32;39977;-79
2023/12/09 13:09:49;;;;;;;39.85;22.25;;;;;;;4.38;59.32;100057.66;7763776;32;38731;-79
2023/12/09 13:14:05;;;;;;;38.88;21.27;;;;;;;4.50;59.20;100062.09;7762812;32;36887;-79
2023/12/09 13:18:23;;;;;;;42.10;20.95;;;;;;;4.16;60.20;100060.78;7763568;32;39771;-80
2023/12/09 13:22:40;;;;;;;42.42;22.08;;;;;;;4.21;60.10;100060.09;7763893;32;41117;-78
2023/12/09 13:26:56;;;;;;;41.55;22.48;;;;;;;4.09;60.67;100058.16;7764506;32;37683;-78
2023/12/09 13:31:14;;;;;;;38.75;21.55;;;;;;;4.07;60.89;100057.56;7758085;32;210269;-77
2023/12/09 13:35:30;;;;;;;40.25;21.33;;;;;;;4.29;60.42;100057.13;7764355;32;39697;-79
2023/12/09 13:39:47;;;;;;;42.45;21.67;;;;;;;4.24;60.33;100062.38;7761755;32;39764;-78
2023/12/09 13:44:03;;;;;;;38.33;20.58;;;;;;;4.50;64.37;100059.41;7763977;32;38044;-79
2023/12/09 13:48:21;;;;;;;43.55;20.92;;;;;;;4.49;60.74;100057.72;7763862;32;37734;-80
2023/12/09 13:52:39;;;;;;;42.38;20.45;;;;;;;4.46;59.84;100058.19;7764020;32;39124;-80
2023/12/09 13:56:55;;;;;;;42.45;22.02;;;;;;;4.37;59.70;100046.03;7751943;32;39861;-79
2023/12/09 14:01:11;;;;;;;39.88;21.30;;;;;;;4.31;59.87;100044.22;7790827;32;38821;-79
2023/12/09 14:05:28;;;;;;;38.22;20.30;;;;;;;4.33;59.77;100048.38;7776968;32;37080;-79
2023/12/09 14:09:45;;;;;;;43.03;20.33;;;;;;;4.30;59.80;100042.59;7791209;32;38621;-79
2023/12/09 14:14:02;;;;;;;39.80;20.58;;;;;;;3.91;61.12;100041.94;7784570;32;40586;-80
2023/12/09 14:18:19;;;;;;;41.08;21.37;;;;;;;4.07;60.53;100030.59;7763229;32;38741;-78
2023/12/09 14:22:35;;;;;;;37.47;20.02;;;;;;;3.94;61.08;100036.09;7766248;32;37132;-78
2023/12/09 14:26:52;;;;;;;40.50;21.50;;;;;;;3.97;60.69;100035.66;7769763;32;39952;-79
2023/12/09 14:31:08;;;;;;;45.50;20.98;;;;;;;4.01;60.61;100033.34;7757880;32;40568;-79
2023/12/09 14:35:24;;;;;;;39.08;20.00;;;;;;;4.10;60.62;100021.19;7765272;32;38759;-80
2023/12/09 14:39:41;;;;;;;36.70;19.80;;;;;;;4.13;60.10;100016.19;7767929;32;35854;-80
2023/12/09 14:43:57;;;;;;;38.85;20.92;;;;;;;4.16;60.17;100011.38;7765576;32;39248;-80
2023/12/09 14:48:22;;;;;;;34.72;19.80;;;;;;;3.86;60.70;100007.53;7765669;32;40100;-81
2023/12/09 14:52:41;;;;;;;38.78;19.25;;;;;;;4.02;60.57;100000.75;7765387;32;38842;-80
2023/12/09 14:57:00;;;;;;;38.72;19.17;;;;;;;3.96;60.51;99985.44;7767364;32;37780;-81
2023/12/09 15:01:17;;;;;;;36.13;19.25;;;;;;;4.16;59.99;99987.09;7771238;32;39976;-80
2023/12/09 15:05:37;;;;;;;35.80;19.62;;;;;;;3.76;60.82;99989.16;7769286;32;41065;-80
2023/12/09 15:09:54;;;;;;;40.83;19.65;;;;;;;3.76;60.93;99983.78;7781351;32;37426;-79
2023/12/09 15:14:12;;;;;;;40.22;21.50;;;;;;;3.74;61.15;99971.53;7772815;32;36779;-80
2023/12/09 15:18:28;;;;;;;41.10;22.67;;;;;;;3.56;61.79;99964.25;7766162;32;38941;-80
2023/12/09 15:22:45;;;;;;;43.55;22.10;;;;;;;3.75;60.73;99968.63;7766077;32;38494;-80
2023/12/09 15:27:04;;;;;;;46.17;22.33;;;;;;;3.93;60.44;99961.59;7766024;32;37677;-80
2023/12/09 15:31:21;;;;;;;47.22;22.50;;;;;;;4.12;59.88;99949.78;7765753;32;37912;-80
2023/12/09 15:35:38;;;;;;;44.10;23.02;;;;;;;4.25;59.05;99948.78;7765921;32;40348;-81
2023/12/09 15:39:54;;;;;;;44.70;23.58;;;;;;;3.72;60.77;99955.59;7765316;32;39625;-82
2023/12/09 15:44:10;;;;;;;39.22;20.90;;;;;;;3.78;60.64;99966.53;7765588;32;38773;-80
2023/12/09 15:48:27;;;;;;;39.58;19.85;;;;;;;3.84;60.48;99962.97;7765744;32;37969;-82
2023/12/09 15:52:44;;;;;;;39.13;20.90;;;;;;;3.80;60.91;99962.56;7765909;32;39557;-80
2023/12/09 15:57:00;;;;;;;45.92;20.23;;;;;;;3.70;60.85;99962.25;7765850;32;39666;-79
2023/12/09 16:01:18;;;;;;;44.65;20.20;;;;;;;3.72;61.22;99960.16;7786403;32;38135;-79
2023/12/09 16:05:35;;;;;;;41.92;21.15;;;;;;;3.64;61.38;99961.28;7792744;32;37139;-78
2023/12/09 16:09:51;;;;;;;39.92;20.12;;;;;;;3.83;61.14;99959.44;7771409;32;39255;-78
2023/12/09 16:14:13;;;;;;;44.83;20.12;;;;;;;3.60;61.55;99960.06;7786459;32;40078;-79
2023/12/09 16:18:30;;;;;;;39.13;20.08;;;;;;;3.98;60.60;99959.06;7792613;32;37908;-79
2023/12/09 16:22:46;;;;;;;39.13;19.10;;;;;;;3.54;61.85;99951.00;7778619;32;37950;-81
2023/12/09 16:27:03;;;;;;;43.90;22.15;;;;;;;3.72;61.25;99950.19;7765554;32;39185;-81
2023/12/09 16:31:19;;;;;;;50.15;23.87;;;;;;;3.73;61.47;99946.47;7788359;32;40080;-81
2023/12/09 16:35:36;;;;;;;52.15;24.20;;;;;;;3.58;62.02;99948.69;7779739;32;38512;-81
2023/12/09 16:39:52;;;;;;;51.92;24.77;;;;;;;3.56;61.79;99945.38;7769045;32;36815;-80
2023/12/09 16:44:08;;;;;;;53.53;24.12;;;;;;;3.66;61.84;99950.28;7792300;32;39971;-81
2023/12/09 16:48:26;;;;;;;52.58;25.25;;;;;;;3.79;61.56;99941.22;7792193;32;40109;-80
2023/12/09 16:52:43;;;;;;;51.30;24.55;;;;;;;3.73;61.62;99930.28;7768936;32;37812;-82
2023/12/09 16:56:59;;;;;;;60.33;26.40;;;;;;;3.86;61.13;99941.97;7765080;32;37255;-80
2023/12/09 17:01:15;;;;;;;61.42;26.90;;;;;;;3.59;62.15;99939.56;7764158;32;39136;-82
2023/12/09 17:05:32;;;;;;;52.70;24.15;;;;;;;3.50;62.23;99940.87;7764892;32;39692;-81
2023/12/09 17:09:48;;;;;;;55.80;26.37;;;;;;;3.72;61.84;99944.81;7763973;32;37785;-78
2023/12/09 17:14:05;;;;;;;50.50;26.95;;;;;;;3.48;62.64;99933.00;7764834;32;37170;-79
2023/12/09 17:18:21;;;;;;;57.05;27.90;;;;;;;3.34;63.14;99924.22;7764348;32;39918;-79
2023/12/09 17:22:38;;;;;;;56.20;26.87;;;;;;;3.52;62.52;99917.25;7764828;32;40770;-79
2023/12/09 17:26:57;;;;;;;50.30;24.80;;;;;;;3.57;61.96;99915.53;7764463;32;38130;-78
2023/12/09 17:31:14;;;;;;;41.58;22.73;;;;;;;3.62;61.86;99917.53;7764405;32;38399;-79
2023/12/09 17:35:30;;;;;;;46.05;23.73;;;;;;;3.55;61.84;99928.41;7764564;32;39819;-79
2023/12/09 17:39:46;;;;;;;50.42;23.77;;;;;;;3.52;61.74;99923.44;7764198;32;40047;-79
2023/12/09 17:44:03;;;;;;;44.25;22.40;;;;;;;3.66;61.18;99910.66;7763891;32;37813;-81
2023/12/09 17:48:19;;;;;;;49.05;23.52;;;;;;;3.70;61.21;99911.84;7765707;32;38004;-80
2023/12/09 17:52:36;;;;;;;46.10;22.58;;;;;;;3.67;60.97;99904.19;7764163;32;39745;-80
2023/12/09 17:56:54;;;;;;;43.00;21.73;;;;;;;3.81;60.86;99893.28;7763887;32;39913;-80
2023/12/09 18:01:10;;;;;;;41.15;21.45;;;;;;;3.95;60.14;99878.59;7764384;32;37845;-79
2023/12/09 18:05:27;;;;;;;46.65;21.35;;;;;;;3.78;60.47;99882.94;7767090;32;37869;-80
2023/12/09 18:09:45;;;;;;;38.85;21.35;;;;;;;3.58;61.31;99859.72;7782948;32;39999;-80
2023/12/09 18:14:02;;;;;;;43.70;22.42;;;;;;;3.69;60.79;99858.13;7794241;32;39636;-79
2023/12/09 18:18:18;;;;;;;42.45;21.92;;;;;;;3.53;61.42;99870.34;7787025;32;38656;-79
2023/12/09 18:22:35;;;;;;;50.85;22.05;;;;;;;3.33;62.04;99871.37;7775972;32;37988;-79
2023/12/09 18:26:52;;;;;;;46.15;22.67;;;;;;;3.67;61.15;99876.41;7769168;32;38889;-83
2023/12/09 18:31:08;;;;;;;40.95;20.35;;;;;;;3.18;62.62;99879.78;7789786;32;40151;-78
2023/12/09 18:35:25;;;;;;;44.40;21.17;;;;;;;3.16;62.95;99868.44;7775243;32;37878;-79
2023/12/09 18:39:41;;;;;;;37.83;20.60;;;;;;;3.40;61.91;99849.75;7774436;32;37131;-81
2023/12/09 18:43:59;;;;;;;37.67;20.42;;;;;;;3.56;61.59;99845.66;7770578;32;39280;-81
2023/12/09 18:48:16;;;;;;;41.20;20.83;;;;;;;3.61;61.52;99856.59;7771059;32;39065;-80
2023/12/09 18:52:35;;;;;;;44.40;22.60;;;;;;;3.81;60.59;99850.13;7766874;32;37802;-81
2023/12/09 18:56:53;;;;;;;38.40;20.12;;;;;;;3.71;61.00;99843.41;7768264;32;36716;-79
2023/12/09 19:01:10;;;;;;;46.28;22.98;;;;;;;3.72;60.67;99812.66;7752597;32;38908;-78
2023/12/09 19:05:27;;;;;;;48.50;23.58;;;;;;;3.74;60.61;99802.50;7766188;32;40934;-78
2023/12/09 19:09:45;;;;;;;47.85;22.35;;;;;;;3.61;61.09;99793.75;7766224;32;38676;-82
2023/12/09 19:14:01;;;;;;;42.83;22.05;;;;;;;3.74;60.64;99780.09;7765896;32;37263;-79
2023/12/09 19:18:17;;;;;;;38.95;21.45;;;;;;;3.59;60.87;99783.19;7766304;32;39277;-80
2023/12/09 19:22:34;;;;;;;49.67;24.27;;;;;;;3.21;62.27;99781.56;7766060;32;39667;-81
2023/12/09 19:26:51;;;;;;;43.55;22.13;;;;;;;3.34;62.11;99777.88;7766010;32;37935;-79
2023/12/09 19:31:08;;;;;;;48.25;24.92;;;;;;;3.13;62.63;99771.06;7765904;32;37117;-80
2023/12/09 19:35:27;;;;;;;49.08;24.67;;;;;;;3.45;61.94;99758.28;7766241;32;39122;-82
2023/12/09 19:39:44;;;;;;;48.28;24.23;;;;;;;3.51;61.84;99759.22;7766203;32;39973;-81
2023/12/09 19:44:01;;;;;;;50.67;25.45;;;;;;;3.44;62.10;99758.50;7766062;32;38520;-79
2023/12/09 19:48:17;;;;;;;50.65;24.60;;;;;;;3.41;61.84;99745.47;7765837;32;37970;-80
2023/12/09 19:52:34;;;;;;;53.72;27.02;;;;;;;3.18;62.71;99738.88;7765075;32;39711;-81
2023/12/09 19:56:50;;;;;;;55.42;26.12;;;;;;;3.29;62.48;99731.91;7765874;32;39982;-81
2023/12/09 20:01:07;;;;;;;53.80;27.70;;;;;;;3.30;62.42;99726.31;7765691;32;37866;-81
2023/12/09 20:05:24;;;;;;;55.28;26.85;;;;;;;3.45;61.81;99723.25;7765879;32;37150;-81
2023/12/09 20:09:40;;;;;;;53.45;26.73;;;;;;;3.12;63.01;99716.38;7765811;32;39798;-81
2023/12/09 20:13:58;;;;;;;49.42;25.42;;;;;;;3.11;63.33;99711.22;7765362;32;40020;-80
2023/12/09 20:18:17;;;;;;;51.80;26.08;;;;;;;3.36;62.14;99693.09;7752036;32;37899;-80
2023/12/09 20:22:34;;;;;;;52.08;25.98;;;;;;;3.25;62.63;99685.75;7765521;32;36810;-78
2023/12/09 20:26:51;;;;;;;53.90;25.85;;;;;;;3.12;62.79;99685.91;7765218;32;39280;-80
2023/12/09 20:31:09;;;;;;;51.28;24.73;;;;;;;2.90;62.99;99693.59;7765389;32;40941;-80
2023/12/09 20:35:29;;;;;;;52.65;26.67;;;;;;;3.17;62.47;99688.75;7765313;32;37917;-81
2023/12/09 20:39:46;;;;;;;54.50;25.35;;;;;;;3.15;62.10;99677.38;7765384;32;37850;-81
2023/12/09 20:44:02;;;;;;;58.03;24.60;;;;;;;2.96;62.62;99673.87;7773003;32;38900;-81
2023/12/09 20:48:20;;;;;;;49.80;24.30;;;;;;;2.81;63.00;99668.84;7775893;32;39911;-84
2023/12/09 20:52:37;;;;;;;56.47;25.55;;;;;;;2.98;62.75;99667.22;7784661;32;37957;-81
2023/12/09 20:56:54;;;;;;;50.33;24.83;;;;;;;2.92;62.67;99661.91;7791121;32;36987;-81
2023/12/09 21:01:10;;;;;;;54.08;24.50;;;;;;;3.28;61.89;99644.06;7788365;32;39842;-83
2023/12/09 21:05:27;;;;;;;57.75;24.40;;;;;;;2.87;63.04;99646.41;7778250;32;39385;-84
2023/12/09 21:09:43;;;;;;;48.75;24.15;;;;;;;3.08;62.25;99652.38;7785339;32;38039;-80
2023/12/09 21:13:59;;;;;;;46.97;22.42;;;;;;;2.58;63.94;99647.97;7765413;32;37156;-78
2023/12/09 21:18:16;;;;;;;51.03;23.30;;;;;;;2.78;62.87;99642.37;7764587;32;38935;-81
2023/12/09 21:22:33;;;;;;;47.55;23.12;;;;;;;3.13;61.77;99634.50;7764860;32;40074;-83
2023/12/09 21:26:50;;;;;;;43.67;21.65;;;;;;;3.02;61.75;99613.72;7784621;32;37931;-83
2023/12/09 21:31:10;;;;;;;47.62;22.13;;;;;;;2.61;62.78;99604.47;7766439;32;37297;-82
2023/12/09 21:35:26;;;;;;;42.00;20.42;;;;;;;2.69;63.00;99612.25;7750920;32;40065;-83
2023/12/09 21:39:42;;;;;;;42.38;20.75;;;;;;;2.77;62.34;99597.66;7769234;32;40457;-82
2023/12/09 21:43:59;;;;;;;36.55;19.15;;;;;;;2.57;62.61;99593.31;7786483;32;38558;-82
2023/12/09 21:48:15;;;;;;;48.08;21.80;;;;;;;2.65;62.20;99589.50;7770561;32;37933;-82
2023/12/09 21:52:32;;;;;;;37.90;19.37;;;;;;;2.25;63.22;99589.94;7783578;32;39773;-82
2023/12/09 21:56:48;;;;;;;36.63;19.42;;;;;;;1.97;64.14;99582.34;7763794;32;39962;-82
2023/12/09 22:01:05;;;;;;;34.80;17.12;;;;;;;1.68;65.22;99581.94;7768991;32;38621;-82
2023/12/09 22:05:21;;;;;;;30.60;16.02;;;;;;;1.40;65.73;99588.56;7790213;32;37868;-81
2023/12/09 22:09:38;;;;;;;42.22;18.40;;;;;;;1.85;65.40;99574.16;7780615;32;38933;-80
2023/12/09 22:13:54;;;;;;;37.55;17.35;;;;;;;1.80;64.52;99577.50;7775421;32;40955;-78
2023/12/09 22:18:10;;;;;;;39.60;18.23;;;;;;;1.28;65.60;99574.19;7766104;32;38121;-81
2023/12/09 22:22:30;;;;;;;37.88;18.73;;;;;;;1.44;65.62;99581.69;7772411;32;37097;-81
2023/12/09 22:26:59;;;;;;;39.97;18.83;;;;;;;1.89;64.60;99586.12;7768767;32;39232;-82
2023/12/09 22:31:15;;;;;;;37.80;18.58;;;;;;;2.09;63.93;99577.88;7790117;32;40589;-81
2023/12/09 22:35:32;;;;;;;44.30;19.37;;;;;;;2.10;63.77;99570.62;7790004;32;38589;-81
2023/12/09 22:39:49;;;;;;;43.08;20.55;;;;;;;2.29;63.77;99574.16;7790074;32;37130;-81
2023/12/09 22:44:06;;;;;;;46.88;21.05;;;;;;;2.52;63.23;99573.50;7789991;32;40018;-82
2023/12/09 22:48:22;;;;;;;45.63;20.23;;;;;;;2.28;64.18;99573.34;7791734;32;40593;-82
2023/12/09 22:52:39;;;;;;;40.30;20.17;;;;;;;2.45;63.76;99573.59;7793697;32;38685;-81
2023/12/09 22:56:55;;;;;;;48.08;20.95;;;;;;;2.44;63.83;99566.56;7779673;32;37967;-81
2023/12/09 23:01:11;;;;;;;42.35;20.70;;;;;;;2.56;63.80;99558.56;7792210;32;40103;-81
2023/12/09 23:05:28;;;;;;;46.42;20.75;;;;;;;2.29;64.77;99547.25;7793474;32;40737;-81
2023/12/09 23:09:44;;;;;;;48.67;19.65;;;;;;;2.10;65.87;99549.94;7793475;32;38467;-81
2023/12/09 23:14:01;;;;;;;42.72;19.92;;;;;;;2.22;64.50;99532.00;7793530;32;37120;-82
2023/12/09 23:18:17;;;;;;;41.83;20.10;;;;;;;2.20;64.76;99528.72;7793497;32;39242;-82
2023/12/09 23:22:33;;;;;;;43.33;18.98;;;;;;;2.35;64.59;99516.78;7776870;32;40000;-82
2023/12/09 23:26:50;;;;;;;38.35;18.00;;;;;;;1.93;65.51;99490.53;7766122;32;37558;-81
2023/12/09 23:31:06;;;;;;;38.95;18.25;;;;;;;1.95;65.82;99460.72;7766144;32;36991;-82
2023/12/09 23:35:23;;;;;;;39.55;17.62;;;;;;;1.54;67.23;99438.00;7766299;32;39281;-81
2023/12/09 23:39:39;;;;;;;38.92;18.40;;;;;;;1.75;66.25;99440.25;7785152;32;39924;-80
2023/12/09 23:43:55;;;;;;;36.80;17.25;;;;;;;1.96;65.50;99454.31;7791642;32;38775;-81
2023/12/09 23:48:16;;;;;;;40.50;18.80;;;;;;;2.03;65.44;99428.19;7793072;32;37141;-81
2023/12/09 23:52:33;;;;;;;44.35;17.10;;;;;;;1.50;67.45;99457.25;7793053;32;40087;-81
2023/12/09 23:56:50;;;;;;;41.80;16.85;;;;;;;1.96;65.81;99467.75;7793105;32;40104;-82
